createdAt,value
2022-12-31T00:00:18.884Z,100091.60
2022-12-31T00:03:13.954Z,100082.20
2022-12-31T00:05:48.487Z,100087.20
2022-12-31T00:08:22.548Z,100086.60
2022-12-31T00:10:56.672Z,100079.80
2022-12-31T00:13:30.383Z,100080.00
2022-12-31T00:16:14.802Z,100078.20
2022-12-31T00:18:53.321Z,100073.80
2022-12-31T00:21:28.974Z,100070.80
2022-12-31T00:24:04.435Z,100068.80
2022-12-31T00:26:39.220Z,100063.40
2022-12-31T00:29:14.256Z,100063.80
2022-12-31T00:31:48.163Z,100065.00
2022-12-31T00:34:21.983Z,100056.20
2022-12-31T00:36:57.125Z,100059.00
2022-12-31T00:39:30.959Z,100061.80
2022-12-31T00:42:05.189Z,100058.60
2022-12-31T00:44:39.062Z,100061.00
2022-12-31T00:47:13.044Z,100067.60
2022-12-31T00:49:46.993Z,100066.00
2022-12-31T00:52:20.727Z,100073.80
2022-12-31T00:54:54.635Z,100079.00
2022-12-31T00:57:28.776Z,100093.00
2022-12-31T01:00:03.084Z,100092.80
2022-12-31T01:02:39.186Z,100092.40
2022-12-31T01:05:13.782Z,100086.60
2022-12-31T01:07:47.505Z,100091.20
2022-12-31T01:10:41.869Z,100100.00
2022-12-31T01:13:15.794Z,100096.20
2022-12-31T01:15:49.784Z,100093.00
2022-12-31T01:18:23.695Z,100095.20
2022-12-31T01:20:57.602Z,100080.80
2022-12-31T01:23:32.533Z,100081.20
2022-12-31T01:26:09.474Z,100081.00
2022-12-31T01:28:43.997Z,100080.00
2022-12-31T01:31:21.208Z,100063.00
2022-12-31T01:33:56.307Z,100058.40
2022-12-31T01:36:32.925Z,100063.00
2022-12-31T01:39:09.771Z,100059.60
2022-12-31T01:41:47.313Z,100057.40
2022-12-31T01:44:56.658Z,100061.60
2022-12-31T01:47:50.684Z,100074.80
2022-12-31T01:50:29.994Z,100076.20
2022-12-31T01:53:09.704Z,100073.80
2022-12-31T01:55:51.658Z,100078.80
2022-12-31T01:58:30.909Z,100086.20
2022-12-31T02:01:06.080Z,100099.60
2022-12-31T02:03:41.532Z,100104.60
2022-12-31T02:06:21.948Z,100099.40
2022-12-31T02:08:56.961Z,100104.20
2022-12-31T02:11:36.658Z,100100.20
2022-12-31T02:14:16.234Z,100097.80
2022-12-31T02:16:59.990Z,100094.40
2022-12-31T02:20:06.256Z,100096.80
2022-12-31T02:23:08.155Z,100102.60
2022-12-31T02:26:12.138Z,100101.40
2022-12-31T02:29:15.258Z,100102.40
2022-12-31T02:31:54.178Z,100091.20
2022-12-31T02:34:35.097Z,100087.80
2022-12-31T02:37:15.916Z,100083.60
2022-12-31T02:39:50.683Z,100087.40
2022-12-31T02:42:24.275Z,100080.20
2022-12-31T02:44:58.042Z,100075.20
2022-12-31T02:47:51.335Z,100084.60
2022-12-31T02:50:41.615Z,100089.00
2022-12-31T02:53:35.021Z,100096.80
2022-12-31T02:56:17.446Z,100109.00
2022-12-31T02:59:20.021Z,100104.40
2022-12-31T03:02:16.547Z,100098.00
2022-12-31T03:04:55.815Z,100086.80
2022-12-31T03:07:32.307Z,100085.20
2022-12-31T03:10:07.317Z,100087.40
2022-12-31T03:12:47.590Z,100096.20
2022-12-31T03:15:25.245Z,100101.60
2022-12-31T03:18:04.172Z,100108.00
2022-12-31T03:20:59.047Z,100104.80
2022-12-31T03:23:37.099Z,100109.60
2022-12-31T03:26:13.375Z,100115.20
2022-12-31T03:28:48.240Z,100110.40
2022-12-31T03:31:21.950Z,100111.40
2022-12-31T03:33:55.565Z,100108.80
2022-12-31T03:36:29.432Z,100112.20
2022-12-31T03:39:03.139Z,100115.80
2022-12-31T03:41:37.489Z,100123.80
2022-12-31T03:44:11.420Z,100126.40
2022-12-31T03:46:45.099Z,100130.80
2022-12-31T03:49:19.069Z,100133.00
2022-12-31T03:51:52.759Z,100149.00
2022-12-31T03:54:26.428Z,100144.40
2022-12-31T03:57:00.530Z,100139.40
2022-12-31T03:59:34.271Z,100135.00
2022-12-31T04:02:08.279Z,100129.60
2022-12-31T04:04:42.140Z,100126.20
2022-12-31T04:07:15.937Z,100126.40
2022-12-31T04:09:49.974Z,100128.40
2022-12-31T04:12:24.201Z,100131.40
2022-12-31T04:14:57.876Z,100131.60
2022-12-31T04:17:31.956Z,100123.40
2022-12-31T04:20:05.991Z,100123.80
2022-12-31T04:22:40.330Z,100114.40
2022-12-31T04:25:14.577Z,100106.60
2022-12-31T04:27:48.545Z,100104.80
2022-12-31T04:30:22.459Z,100094.40
2022-12-31T04:32:56.111Z,100096.20
2022-12-31T04:35:30.001Z,100095.40
2022-12-31T04:38:03.651Z,100090.20
2022-12-31T04:40:57.883Z,100095.00
2022-12-31T04:43:31.605Z,100096.00
2022-12-31T04:46:05.255Z,100102.00
2022-12-31T04:48:39.661Z,100106.40
2022-12-31T04:51:14.627Z,100116.00
2022-12-31T04:53:48.896Z,100122.00
2022-12-31T04:56:22.978Z,100125.20
2022-12-31T04:58:57.195Z,100126.00
2022-12-31T05:01:31.157Z,100119.60
2022-12-31T05:04:05.108Z,100118.80
2022-12-31T05:06:38.809Z,100113.20
2022-12-31T05:09:12.369Z,100105.40
2022-12-31T05:11:45.992Z,100111.60
2022-12-31T05:14:20.118Z,100117.00
2022-12-31T05:16:54.981Z,100114.20
2022-12-31T05:19:28.716Z,100103.60
2022-12-31T05:22:20.041Z,100108.40
2022-12-31T05:24:53.764Z,100117.40
2022-12-31T05:27:28.304Z,100124.60
2022-12-31T05:30:02.107Z,100124.80
2022-12-31T05:32:36.487Z,100124.40
2022-12-31T05:35:12.039Z,100118.60
2022-12-31T05:37:45.986Z,100123.00
2022-12-31T05:40:20.626Z,100123.60
2022-12-31T05:42:55.256Z,100133.40
2022-12-31T05:45:31.220Z,100131.20
2022-12-31T05:48:05.222Z,100128.60
2022-12-31T05:50:38.886Z,100129.40
2022-12-31T05:53:14.955Z,100122.80
2022-12-31T05:55:49.875Z,100119.20
2022-12-31T05:58:23.517Z,100118.80
2022-12-31T06:00:57.406Z,100133.00
2022-12-31T06:03:31.672Z,100141.20
2022-12-31T06:06:08.053Z,100140.40
2022-12-31T06:08:41.924Z,100136.80
2022-12-31T06:11:15.845Z,100139.00
2022-12-31T06:13:49.939Z,100128.20
2022-12-31T06:16:23.577Z,100129.00
2022-12-31T06:18:57.852Z,100131.20
2022-12-31T06:21:32.084Z,100143.00
2022-12-31T06:24:06.265Z,100138.40
2022-12-31T06:26:39.968Z,100141.60
2022-12-31T06:29:13.660Z,100150.20
2022-12-31T06:31:47.311Z,100149.00
2022-12-31T06:34:21.218Z,100149.40
2022-12-31T06:36:54.930Z,100155.40
2022-12-31T06:39:29.106Z,100164.60
2022-12-31T06:42:03.027Z,100160.80
2022-12-31T06:44:36.836Z,100164.80
2022-12-31T06:47:10.462Z,100159.40
2022-12-31T06:49:44.335Z,100161.40
2022-12-31T06:52:18.078Z,100160.00
2022-12-31T06:54:53.530Z,100157.00
2022-12-31T06:57:28.812Z,100150.40
2022-12-31T07:00:05.437Z,100146.20
2022-12-31T07:03:08.590Z,100139.20
2022-12-31T07:05:52.082Z,100148.80
2022-12-31T07:08:48.359Z,100158.80
2022-12-31T07:11:29.190Z,100154.60
2022-12-31T07:14:19.708Z,100160.60
2022-12-31T07:17:13.206Z,100174.80
2022-12-31T07:20:04.291Z,100183.40
2022-12-31T07:22:39.694Z,100181.80
2022-12-31T07:25:19.665Z,100180.60
2022-12-31T07:28:14.930Z,100178.40
2022-12-31T07:30:57.729Z,100182.00
2022-12-31T07:33:50.444Z,100175.80
2022-12-31T07:37:00.307Z,100181.00
2022-12-31T07:39:47.611Z,100174.80
2022-12-31T07:42:29.654Z,100171.80
2022-12-31T07:45:16.440Z,100165.60
2022-12-31T07:47:51.593Z,100164.60
2022-12-31T07:50:27.131Z,100174.40
2022-12-31T07:53:04.017Z,100171.80
2022-12-31T07:55:37.829Z,100168.40
2022-12-31T07:58:26.941Z,100164.20
2022-12-31T08:01:03.195Z,100164.40
2022-12-31T08:03:57.832Z,100169.80
2022-12-31T08:06:45.757Z,100166.20
2022-12-31T08:09:40.851Z,100167.00
2022-12-31T08:12:15.753Z,100175.00
2022-12-31T08:14:51.802Z,100168.60
2022-12-31T08:17:26.837Z,100162.80
2022-12-31T08:20:02.118Z,100167.80
2022-12-31T08:23:05.977Z,100173.00
2022-12-31T08:25:56.609Z,100168.00
2022-12-31T08:28:50.456Z,100173.80
2022-12-31T08:31:31.335Z,100171.60
2022-12-31T08:34:18.511Z,100166.80
2022-12-31T08:37:02.580Z,100161.60
2022-12-31T08:39:55.136Z,100159.20
2022-12-31T08:42:39.496Z,100167.40
2022-12-31T08:45:25.536Z,100155.80
2022-12-31T08:48:07.120Z,100155.20
2022-12-31T08:50:42.330Z,100153.40
2022-12-31T08:53:17.685Z,100147.80
2022-12-31T08:55:58.568Z,100141.20
2022-12-31T08:58:46.640Z,100142.20
2022-12-31T09:01:25.718Z,100145.20
2022-12-31T09:04:17.384Z,100150.60
2022-12-31T09:07:01.153Z,100140.80
2022-12-31T09:10:01.583Z,100136.20
2022-12-31T09:12:44.681Z,100125.60
2022-12-31T09:15:27.896Z,100117.40
2022-12-31T09:18:06.917Z,100113.80
2022-12-31T09:20:44.631Z,100121.20
2022-12-31T09:23:20.384Z,100135.60
2022-12-31T09:26:08.636Z,100142.60
2022-12-31T09:28:55.001Z,100140.20
2022-12-31T09:31:41.664Z,100141.60
2022-12-31T09:34:31.857Z,100143.40
2022-12-31T09:37:13.083Z,100144.80
2022-12-31T09:39:49.450Z,100141.20
2022-12-31T09:42:59.725Z,100130.60
2022-12-31T09:46:24.983Z,100133.00
2022-12-31T09:49:48.454Z,100136.40
2022-12-31T09:52:35.003Z,100134.00
2022-12-31T09:55:33.953Z,100137.00
2022-12-31T09:58:31.031Z,100132.00
2022-12-31T10:01:29.135Z,100124.20
2022-12-31T10:04:35.004Z,100123.80
2022-12-31T10:07:37.364Z,100128.20
2022-12-31T10:10:24.999Z,100135.00
2022-12-31T10:13:31.988Z,100125.20
2022-12-31T10:16:31.043Z,100109.40
2022-12-31T10:19:46.294Z,100108.00
2022-12-31T10:22:54.985Z,100106.40
2022-12-31T10:25:58.027Z,100103.80
2022-12-31T10:28:51.992Z,100090.40
2022-12-31T10:31:53.045Z,100089.40
2022-12-31T10:34:47.988Z,100078.20
2022-12-31T10:37:31.342Z,100084.00
2022-12-31T10:40:32.110Z,100089.80
2022-12-31T10:43:43.293Z,100082.60
2022-12-31T10:47:09.023Z,100075.60
2022-12-31T10:50:47.984Z,100083.40
2022-12-31T10:54:12.978Z,100062.20
2022-12-31T10:57:38.092Z,100069.80
2022-12-31T11:00:26.182Z,100071.60
2022-12-31T11:03:51.955Z,100070.00
2022-12-31T11:07:37.136Z,100071.80
2022-12-31T11:11:14.034Z,100075.20
2022-12-31T11:14:35.054Z,100075.60
2022-12-31T11:17:31.645Z,100066.00
2022-12-31T11:20:53.010Z,100066.20
2022-12-31T11:23:48.047Z,100060.20
2022-12-31T11:26:48.002Z,100060.00
2022-12-31T11:29:51.015Z,100058.00
2022-12-31T11:32:51.005Z,100048.40
2022-12-31T11:35:47.136Z,100047.80
2022-12-31T11:38:34.035Z,100042.80
2022-12-31T11:41:18.019Z,100044.80
2022-12-31T11:44:06.558Z,100039.00
2022-12-31T11:47:18.994Z,100040.60
2022-12-31T11:50:20.003Z,100039.40
2022-12-31T12:01:12.347Z,100030.80
2022-12-31T12:03:44.469Z,100024.60
2022-12-31T12:06:23.166Z,100032.60
2022-12-31T12:08:55.950Z,100028.80
2022-12-31T12:11:32.015Z,100033.60
2022-12-31T12:14:01.777Z,100019.40
2022-12-31T12:16:32.193Z,100026.60
2022-12-31T12:19:16.774Z,100023.60
2022-12-31T12:21:50.785Z,100024.80
2022-12-31T12:24:25.814Z,100027.00
2022-12-31T12:26:56.736Z,100033.40
2022-12-31T12:29:33.564Z,100033.00
2022-12-31T12:32:14.983Z,100037.60
2022-12-31T12:34:49.618Z,100037.20
2022-12-31T12:37:33.869Z,100044.00
2022-12-31T12:40:17.557Z,100046.40
2022-12-31T12:42:50.877Z,100044.20
2022-12-31T12:45:24.259Z,100043.00
2022-12-31T12:48:00.867Z,100036.20
2022-12-31T12:50:42.378Z,100041.60
2022-12-31T12:53:33.514Z,100038.20
2022-12-31T12:56:18.245Z,100044.00
2022-12-31T12:59:11.702Z,100043.60
2022-12-31T13:01:53.296Z,100034.40
2022-12-31T13:04:50.811Z,100035.60
2022-12-31T13:07:37.899Z,100042.80
2022-12-31T13:10:33.188Z,100049.80
2022-12-31T13:13:26.040Z,100042.00
2022-12-31T13:18:40.311Z,100066.20
2022-12-31T13:21:37.568Z,100074.60
2022-12-31T13:24:30.574Z,100083.20
2022-12-31T13:27:15.358Z,100081.80
2022-12-31T13:29:51.807Z,100082.80
2022-12-31T13:32:36.994Z,100086.20
2022-12-31T13:35:28.270Z,100080.80
2022-12-31T13:38:17.273Z,100079.20
2022-12-31T13:41:01.604Z,100092.60
2022-12-31T13:43:50.835Z,100087.60
2022-12-31T13:46:38.991Z,100088.00
2022-12-31T13:49:24.753Z,100084.60
2022-12-31T13:52:07.492Z,100089.40
2022-12-31T13:54:53.018Z,100099.60
2022-12-31T13:57:42.054Z,100095.60
2022-12-31T14:00:26.055Z,100092.60
2022-12-31T14:03:12.303Z,100093.20
2022-12-31T14:05:53.800Z,100091.60
2022-12-31T14:08:28.975Z,100091.80
2022-12-31T14:11:22.076Z,100096.80
2022-12-31T14:14:13.420Z,100094.60
2022-12-31T14:16:58.665Z,100092.20
2022-12-31T14:19:49.471Z,100091.60
2022-12-31T14:22:32.753Z,100090.60
2022-12-31T14:25:22.064Z,100087.80
2022-12-31T14:28:00.552Z,100096.40
2022-12-31T14:30:42.966Z,100085.20
2022-12-31T14:33:36.778Z,100095.20
2022-12-31T14:36:29.189Z,100088.80
2022-12-31T14:39:42.980Z,100099.80
2022-12-31T14:42:37.442Z,100092.60
2022-12-31T14:45:36.887Z,100099.40
2022-12-31T14:48:24.854Z,100101.20
2022-12-31T14:51:03.110Z,100107.40
2022-12-31T14:53:37.425Z,100094.40
2022-12-31T14:56:34.254Z,100098.20
2022-12-31T14:59:24.489Z,100112.60
2022-12-31T15:02:00.293Z,100097.60
2022-12-31T15:04:46.155Z,100104.60
2022-12-31T15:07:31.701Z,100105.00
2022-12-31T15:10:22.499Z,100102.00
2022-12-31T15:13:07.476Z,100100.00
2022-12-31T15:16:06.108Z,100092.60
2022-12-31T15:19:19.120Z,100088.00
2022-12-31T15:22:05.318Z,100095.80
2022-12-31T15:24:47.401Z,100102.40
2022-12-31T15:27:38.407Z,100105.60
2022-12-31T15:30:49.754Z,100096.00
2022-12-31T15:33:31.224Z,100097.60
2022-12-31T15:36:21.521Z,100100.40
2022-12-31T15:39:08.415Z,100120.60
2022-12-31T15:42:18.878Z,100131.20
2022-12-31T15:44:52.869Z,100135.00
2022-12-31T15:47:35.374Z,100138.20
2022-12-31T15:50:19.379Z,100133.80
2022-12-31T15:52:57.199Z,100147.00
2022-12-31T15:55:38.845Z,100141.00
2022-12-31T15:58:22.541Z,100151.40
2022-12-31T16:01:14.934Z,100153.60
2022-12-31T16:03:56.736Z,100148.60
2022-12-31T16:06:36.859Z,100158.20
2022-12-31T16:09:22.901Z,100165.00
2022-12-31T16:12:00.743Z,100164.60
2022-12-31T16:14:40.432Z,100160.40
2022-12-31T16:17:32.043Z,100156.40
2022-12-31T16:20:25.920Z,100169.60
2022-12-31T16:23:02.825Z,100172.40
2022-12-31T16:25:37.507Z,100165.40
2022-12-31T16:28:20.334Z,100180.60
2022-12-31T16:31:04.704Z,100181.40
2022-12-31T16:33:38.993Z,100181.80
2022-12-31T16:36:24.448Z,100179.80
2022-12-31T16:39:26.165Z,100187.20
2022-12-31T16:42:20.673Z,100177.60
2022-12-31T16:44:58.939Z,100187.00
2022-12-31T16:47:39.314Z,100195.00
2022-12-31T16:50:22.111Z,100189.60
2022-12-31T16:53:05.198Z,100196.20
2022-12-31T16:55:40.466Z,100191.80
2022-12-31T16:58:27.437Z,100203.00
2022-12-31T17:01:18.992Z,100203.80
2022-12-31T17:04:00.125Z,100197.60
2022-12-31T17:06:34.890Z,100195.80
2022-12-31T17:09:20.960Z,100204.80
2022-12-31T17:12:16.257Z,100201.80
2022-12-31T17:14:54.379Z,100202.20
2022-12-31T17:17:33.587Z,100206.00
2022-12-31T17:31:33.389Z,100217.60
2022-12-31T17:34:33.895Z,100215.40
2022-12-31T17:37:20.056Z,100218.00
2022-12-31T17:40:10.907Z,100220.40
2022-12-31T17:42:52.573Z,100224.40
2022-12-31T17:45:27.409Z,100217.80
2022-12-31T17:48:02.757Z,100215.40
2022-12-31T17:50:37.257Z,100223.60
2022-12-31T17:53:17.411Z,100225.80
2022-12-31T17:55:56.207Z,100224.80
2022-12-31T17:58:33.872Z,100225.80
2022-12-31T18:01:11.525Z,100220.00
2022-12-31T18:03:46.196Z,100228.00
2022-12-31T18:06:20.707Z,100223.20
2022-12-31T18:08:54.837Z,100230.40
2022-12-31T18:11:29.022Z,100238.80
2022-12-31T18:14:03.566Z,100240.40
2022-12-31T18:16:37.720Z,100244.80
2022-12-31T18:19:45.911Z,100248.00
2022-12-31T18:22:16.014Z,100257.00
2022-12-31T18:24:57.286Z,100259.20
2022-12-31T18:27:32.345Z,100254.80
2022-12-31T18:30:08.053Z,100259.60
2022-12-31T18:32:44.183Z,100255.80
2022-12-31T18:38:20.798Z,100245.60
2022-12-31T18:40:58.792Z,100259.20
2022-12-31T18:43:34.906Z,100259.60
2022-12-31T18:46:13.279Z,100251.80
2022-12-31T18:48:48.280Z,100248.80
2022-12-31T18:51:31.823Z,100245.80
2022-12-31T18:54:08.345Z,100243.80
2022-12-31T18:56:47.622Z,100246.80
2022-12-31T18:59:22.316Z,100240.80
2022-12-31T19:01:56.387Z,100237.60
2022-12-31T19:04:30.689Z,100243.00
2022-12-31T19:07:04.840Z,100244.00
2022-12-31T19:09:47.144Z,100247.60
2022-12-31T19:12:22.692Z,100233.00
2022-12-31T19:14:57.339Z,100236.00
2022-12-31T19:17:31.750Z,100240.60
2022-12-31T19:20:06.958Z,100246.80
2022-12-31T19:22:41.184Z,100241.60
2022-12-31T19:25:22.960Z,100241.60
2022-12-31T19:27:57.295Z,100239.20
2022-12-31T19:30:34.524Z,100244.20
2022-12-31T19:33:09.033Z,100237.20
2022-12-31T19:35:44.217Z,100246.40
2022-12-31T19:38:23.628Z,100242.60
2022-12-31T19:40:58.767Z,100242.80
2022-12-31T19:43:32.891Z,100239.80
2022-12-31T19:46:08.302Z,100243.80
2022-12-31T19:48:42.532Z,100236.80
2022-12-31T19:51:20.999Z,100236.20
2022-12-31T19:53:54.918Z,100242.20
2022-12-31T19:56:29.236Z,100253.80
2022-12-31T19:59:08.610Z,100259.20
2022-12-31T20:01:43.341Z,100255.40
2022-12-31T20:04:18.239Z,100252.80
2022-12-31T20:06:52.041Z,100252.20
2022-12-31T20:09:26.266Z,100255.00
2022-12-31T20:12:00.353Z,100251.60
2022-12-31T20:14:34.692Z,100257.00
2022-12-31T20:17:08.793Z,100255.60
2022-12-31T20:19:43.912Z,100252.60
2022-12-31T20:22:18.402Z,100257.40
2022-12-31T20:24:52.595Z,100258.20
2022-12-31T20:27:26.937Z,100255.60
2022-12-31T20:30:00.900Z,100256.60
2022-12-31T20:32:36.192Z,100261.80
2022-12-31T20:35:11.386Z,100264.20
2022-12-31T20:37:45.352Z,100271.80
2022-12-31T20:40:20.920Z,100269.40
2022-12-31T20:42:55.033Z,100272.00
2022-12-31T20:45:29.025Z,100263.40
2022-12-31T20:48:03.146Z,100270.00
2022-12-31T20:50:37.098Z,100265.40
2022-12-31T20:53:11.585Z,100267.20
2022-12-31T20:55:46.418Z,100267.60
2022-12-31T20:58:20.840Z,100264.80
2022-12-31T21:00:55.758Z,100266.00
2022-12-31T21:04:03.877Z,100262.00
2022-12-31T21:06:24.654Z,100260.20
2022-12-31T21:08:59.996Z,100260.60
2022-12-31T21:11:51.693Z,100257.20
2022-12-31T21:14:25.936Z,100263.20
2022-12-31T21:17:00.169Z,100260.80
2022-12-31T21:19:34.309Z,100262.80
2022-12-31T21:22:08.941Z,100261.80
2022-12-31T21:24:43.527Z,100267.60
2022-12-31T21:27:18.168Z,100267.40
2022-12-31T21:30:17.823Z,100260.60
2022-12-31T21:32:46.430Z,100261.20
2022-12-31T21:38:15.354Z,100258.60
2022-12-31T21:40:50.658Z,100256.40
2022-12-31T21:43:24.803Z,100262.20
2022-12-31T21:46:07.691Z,100268.00
2022-12-31T21:48:42.155Z,100266.60
2022-12-31T21:51:18.251Z,100264.00
2022-12-31T21:53:52.569Z,100271.60
2022-12-31T21:56:27.543Z,100271.60
2022-12-31T21:59:19.554Z,100276.80
2022-12-31T22:02:11.151Z,100270.60
2022-12-31T22:05:02.316Z,100280.20
2022-12-31T22:07:37.345Z,100280.60
2022-12-31T22:10:12.432Z,100286.00
2022-12-31T22:12:46.294Z,100283.00
2022-12-31T22:15:20.640Z,100293.20
2022-12-31T22:17:54.550Z,100282.20
2022-12-31T22:20:29.195Z,100283.80
2022-12-31T22:23:03.807Z,100281.00
2022-12-31T22:25:40.256Z,100283.80
2022-12-31T22:31:10.220Z,100282.80
2022-12-31T22:33:47.129Z,100287.80
2022-12-31T22:36:24.529Z,100287.00
2022-12-31T22:39:01.405Z,100279.60
2022-12-31T22:41:36.719Z,100280.60
2022-12-31T22:44:11.479Z,100290.20
2022-12-31T22:46:49.365Z,100293.80
2022-12-31T22:49:23.746Z,100287.20
2022-12-31T22:52:00.835Z,100291.60
2022-12-31T22:54:39.216Z,100288.00
2022-12-31T22:57:17.931Z,100291.20
2022-12-31T22:59:54.377Z,100293.00
2022-12-31T23:02:29.111Z,100292.00
2022-12-31T23:05:15.195Z,100288.80
2022-12-31T23:07:50.275Z,100296.60
2022-12-31T23:10:41.680Z,100291.20
2022-12-31T23:13:33.719Z,100295.00
2022-12-31T23:16:26.034Z,100298.40
2022-12-31T23:19:17.884Z,100294.20
2022-12-31T23:22:09.320Z,100291.80
2022-12-31T23:24:43.567Z,100292.00
2022-12-31T23:27:17.470Z,100288.80
2022-12-31T23:29:51.761Z,100284.40
2022-12-31T23:32:25.998Z,100284.40
2022-12-31T23:35:04.539Z,100285.80
2022-12-31T23:37:43.569Z,100275.80
2022-12-31T23:40:21.899Z,100278.00
2022-12-31T23:42:56.199Z,100272.40
2022-12-31T23:45:33.296Z,100268.20
2022-12-31T23:48:09.182Z,100275.00
2022-12-31T23:50:50.859Z,100280.60
2022-12-31T23:53:27.220Z,100282.60
2022-12-31T23:56:16.132Z,100286.00
2022-12-31T23:58:56.943Z,100283.60
